sensor_id;sensor_type;location;lat;lon;timestamp;P1;durP1;ratioP1;P2;durP2;ratioP2
20391;SDS011;10355;53.688;10.078;2023-05-07T00:01:24;5.97;;;4.00;;
20391;SDS011;10355;53.688;10.078;2023-05-07T00:04:08;7.63;;;4.70;;
20391;SDS011;10355;53.688;10.078;2023-05-07T00:06:51;6.43;;;4.30;;
20391;SDS011;10355;53.688;10.078;2023-05-07T00:09:35;6.43;;;3.83;;
20391;SDS011;10355;53.688;10.078;2023-05-07T00:12:18;6.32;;;4.15;;
20391;SDS011;10355;53.688;10.078;2023-05-07T00:15:01;7.32;;;4.30;;
20391;SDS011;10355;53.688;10.078;2023-05-07T00:17:44;6.00;;;3.58;;
20391;SDS011;10355;53.688;10.078;2023-05-07T00:20:28;7.10;;;4.22;;
20391;SDS011;10355;53.688;10.078;2023-05-07T00:23:11;7.63;;;4.53;;
20391;SDS011;10355;53.688;10.078;2023-05-07T00:25:54;6.78;;;4.18;;
20391;SDS011;10355;53.688;10.078;2023-05-07T00:28:36;6.80;;;4.00;;
20391;SDS011;10355;53.688;10.078;2023-05-07T00:31:19;6.47;;;3.85;;
20391;SDS011;10355;53.688;10.078;2023-05-07T00:34:02;6.63;;;4.18;;
20391;SDS011;10355;53.688;10.078;2023-05-07T00:36:46;6.88;;;4.38;;
20391;SDS011;10355;53.688;10.078;2023-05-07T00:39:28;6.72;;;4.25;;
20391;SDS011;10355;53.688;10.078;2023-05-07T00:42:13;7.07;;;4.28;;
20391;SDS011;10355;53.688;10.078;2023-05-07T00:44:56;7.07;;;4.25;;
20391;SDS011;10355;53.688;10.078;2023-05-07T00:47:39;8.02;;;4.40;;
20391;SDS011;10355;53.688;10.078;2023-05-07T00:50:22;8.13;;;4.53;;
20391;SDS011;10355;53.688;10.078;2023-05-07T00:53:06;8.30;;;4.60;;
20391;SDS011;10355;53.688;10.078;2023-05-07T00:55:48;10.38;;;4.00;;
20391;SDS011;10355;53.688;10.078;2023-05-07T00:58:31;7.43;;;4.55;;
20391;SDS011;10355;53.688;10.078;2023-05-07T01:01:14;8.25;;;4.53;;
20391;SDS011;10355;53.688;10.078;2023-05-07T01:03:58;6.00;;;3.95;;
20391;SDS011;10355;53.688;10.078;2023-05-07T01:06:41;7.70;;;4.60;;
20391;SDS011;10355;53.688;10.078;2023-05-07T01:09:25;8.98;;;4.28;;
20391;SDS011;10355;53.688;10.078;2023-05-07T01:12:08;8.20;;;4.93;;
20391;SDS011;10355;53.688;10.078;2023-05-07T01:14:51;9.02;;;5.28;;
20391;SDS011;10355;53.688;10.078;2023-05-07T01:17:34;9.18;;;4.53;;
20391;SDS011;10355;53.688;10.078;2023-05-07T01:20:18;7.25;;;4.40;;
20391;SDS011;10355;53.688;10.078;2023-05-07T01:23:04;6.70;;;4.15;;
20391;SDS011;10355;53.688;10.078;2023-05-07T01:25:51;6.93;;;4.60;;
20391;SDS011;10355;53.688;10.078;2023-05-07T01:28:35;7.18;;;4.53;;
20391;SDS011;10355;53.688;10.078;2023-05-07T01:31:17;6.57;;;4.25;;
20391;SDS011;10355;53.688;10.078;2023-05-07T01:34:00;7.13;;;4.70;;
20391;SDS011;10355;53.688;10.078;2023-05-07T01:36:44;9.85;;;4.43;;
20391;SDS011;10355;53.688;10.078;2023-05-07T01:39:29;7.35;;;4.55;;
20391;SDS011;10355;53.688;10.078;2023-05-07T01:42:11;7.05;;;4.45;;
20391;SDS011;10355;53.688;10.078;2023-05-07T01:44:54;8.25;;;4.35;;
20391;SDS011;10355;53.688;10.078;2023-05-07T01:47:37;8.30;;;4.90;;
20391;SDS011;10355;53.688;10.078;2023-05-07T01:50:20;6.28;;;4.10;;
20391;SDS011;10355;53.688;10.078;2023-05-07T01:53:02;6.18;;;3.97;;
20391;SDS011;10355;53.688;10.078;2023-05-07T01:55:46;6.35;;;4.10;;
20391;SDS011;10355;53.688;10.078;2023-05-07T01:58:30;6.10;;;4.00;;
20391;SDS011;10355;53.688;10.078;2023-05-07T02:01:13;6.18;;;3.72;;
20391;SDS011;10355;53.688;10.078;2023-05-07T02:03:57;8.50;;;4.30;;
20391;SDS011;10355;53.688;10.078;2023-05-07T02:06:42;5.80;;;4.05;;
20391;SDS011;10355;53.688;10.078;2023-05-07T02:09:26;7.93;;;4.07;;
20391;SDS011;10355;53.688;10.078;2023-05-07T02:12:10;8.35;;;4.60;;
20391;SDS011;10355;53.688;10.078;2023-05-07T02:14:52;7.68;;;4.38;;
20391;SDS011;10355;53.688;10.078;2023-05-07T02:17:38;6.75;;;4.05;;
20391;SDS011;10355;53.688;10.078;2023-05-07T02:20:21;6.88;;;3.88;;
20391;SDS011;10355;53.688;10.078;2023-05-07T02:23:04;6.57;;;4.15;;
20391;SDS011;10355;53.688;10.078;2023-05-07T02:25:47;6.47;;;4.40;;
20391;SDS011;10355;53.688;10.078;2023-05-07T02:28:31;5.45;;;3.80;;
20391;SDS011;10355;53.688;10.078;2023-05-07T02:31:18;7.45;;;4.70;;
20391;SDS011;10355;53.688;10.078;2023-05-07T02:34:01;6.88;;;3.97;;
20391;SDS011;10355;53.688;10.078;2023-05-07T02:36:43;6.60;;;4.28;;
20391;SDS011;10355;53.688;10.078;2023-05-07T02:39:29;9.27;;;4.22;;
20391;SDS011;10355;53.688;10.078;2023-05-07T02:42:12;7.43;;;4.15;;
20391;SDS011;10355;53.688;10.078;2023-05-07T02:44:56;7.30;;;4.45;;
20391;SDS011;10355;53.688;10.078;2023-05-07T02:47:38;7.93;;;4.35;;
20391;SDS011;10355;53.688;10.078;2023-05-07T02:50:21;7.50;;;4.80;;
20391;SDS011;10355;53.688;10.078;2023-05-07T02:53:04;5.65;;;4.43;;
20391;SDS011;10355;53.688;10.078;2023-05-07T02:55:47;7.00;;;4.18;;
20391;SDS011;10355;53.688;10.078;2023-05-07T02:58:29;7.82;;;4.68;;
20391;SDS011;10355;53.688;10.078;2023-05-07T03:01:15;7.50;;;4.80;;
20391;SDS011;10355;53.688;10.078;2023-05-07T03:04:08;8.02;;;4.80;;
20391;SDS011;10355;53.688;10.078;2023-05-07T03:06:50;6.85;;;4.35;;
20391;SDS011;10355;53.688;10.078;2023-05-07T03:09:33;6.45;;;4.40;;
20391;SDS011;10355;53.688;10.078;2023-05-07T03:12:16;8.73;;;5.03;;
20391;SDS011;10355;53.688;10.078;2023-05-07T03:14:59;7.20;;;4.70;;
20391;SDS011;10355;53.688;10.078;2023-05-07T03:17:43;10.07;;;5.03;;
20391;SDS011;10355;53.688;10.078;2023-05-07T03:20:26;6.88;;;4.57;;
20391;SDS011;10355;53.688;10.078;2023-05-07T03:23:09;8.68;;;4.65;;
20391;SDS011;10355;53.688;10.078;2023-05-07T03:25:52;6.22;;;4.40;;
20391;SDS011;10355;53.688;10.078;2023-05-07T03:28:35;8.50;;;4.50;;
20391;SDS011;10355;53.688;10.078;2023-05-07T03:31:21;6.88;;;4.30;;
20391;SDS011;10355;53.688;10.078;2023-05-07T03:34:06;12.95;;;4.63;;
20391;SDS011;10355;53.688;10.078;2023-05-07T03:36:48;6.78;;;4.40;;
20391;SDS011;10355;53.688;10.078;2023-05-07T03:39:32;6.22;;;4.13;;
20391;SDS011;10355;53.688;10.078;2023-05-07T03:42:15;7.00;;;4.30;;
20391;SDS011;10355;53.688;10.078;2023-05-07T03:44:59;5.53;;;3.70;;
20391;SDS011;10355;53.688;10.078;2023-05-07T03:47:42;6.05;;;3.95;;
20391;SDS011;10355;53.688;10.078;2023-05-07T03:50:31;6.38;;;3.90;;
20391;SDS011;10355;53.688;10.078;2023-05-07T03:53:14;7.07;;;3.70;;
20391;SDS011;10355;53.688;10.078;2023-05-07T03:55:56;7.82;;;4.43;;
20391;SDS011;10355;53.688;10.078;2023-05-07T03:58:39;5.97;;;4.20;;
20391;SDS011;10355;53.688;10.078;2023-05-07T04:01:24;6.40;;;4.45;;
20391;SDS011;10355;53.688;10.078;2023-05-07T04:04:07;7.45;;;4.03;;
20391;SDS011;10355;53.688;10.078;2023-05-07T04:06:52;7.28;;;4.30;;
20391;SDS011;10355;53.688;10.078;2023-05-07T04:09:36;6.57;;;3.97;;
20391;SDS011;10355;53.688;10.078;2023-05-07T04:12:18;6.07;;;3.65;;
20391;SDS011;10355;53.688;10.078;2023-05-07T04:15:04;6.93;;;4.55;;
20391;SDS011;10355;53.688;10.078;2023-05-07T04:17:47;8.35;;;4.43;;
20391;SDS011;10355;53.688;10.078;2023-05-07T04:20:33;7.63;;;4.32;;
20391;SDS011;10355;53.688;10.078;2023-05-07T04:23:20;7.20;;;4.18;;
20391;SDS011;10355;53.688;10.078;2023-05-07T04:26:03;6.50;;;4.15;;
20391;SDS011;10355;53.688;10.078;2023-05-07T04:28:57;6.55;;;4.25;;
20391;SDS011;10355;53.688;10.078;2023-05-07T04:31:46;6.05;;;3.45;;
20391;SDS011;10355;53.688;10.078;2023-05-07T04:34:29;7.95;;;4.32;;
20391;SDS011;10355;53.688;10.078;2023-05-07T04:37:14;4.22;;;3.38;;
20391;SDS011;10355;53.688;10.078;2023-05-07T04:39:58;6.97;;;3.97;;
20391;SDS011;10355;53.688;10.078;2023-05-07T04:42:41;6.80;;;4.00;;
20391;SDS011;10355;53.688;10.078;2023-05-07T04:45:24;5.40;;;3.60;;
20391;SDS011;10355;53.688;10.078;2023-05-07T04:48:08;7.70;;;4.20;;
20391;SDS011;10355;53.688;10.078;2023-05-07T04:50:54;8.38;;;4.25;;
20391;SDS011;10355;53.688;10.078;2023-05-07T04:53:37;6.95;;;4.30;;
20391;SDS011;10355;53.688;10.078;2023-05-07T04:56:21;6.05;;;3.63;;
20391;SDS011;10355;53.688;10.078;2023-05-07T04:59:04;5.93;;;3.60;;
20391;SDS011;10355;53.688;10.078;2023-05-07T05:01:48;6.30;;;3.63;;
20391;SDS011;10355;53.688;10.078;2023-05-07T05:04:31;6.25;;;3.78;;
20391;SDS011;10355;53.688;10.078;2023-05-07T05:07:14;7.78;;;3.40;;
20391;SDS011;10355;53.688;10.078;2023-05-07T05:09:57;5.18;;;3.35;;
20391;SDS011;10355;53.688;10.078;2023-05-07T05:12:41;5.43;;;3.55;;
20391;SDS011;10355;53.688;10.078;2023-05-07T05:15:23;4.93;;;3.33;;
20391;SDS011;10355;53.688;10.078;2023-05-07T05:18:06;4.60;;;3.20;;
20391;SDS011;10355;53.688;10.078;2023-05-07T05:20:49;5.20;;;3.40;;
20391;SDS011;10355;53.688;10.078;2023-05-07T05:23:33;6.55;;;3.40;;
20391;SDS011;10355;53.688;10.078;2023-05-07T05:26:16;5.55;;;3.40;;
20391;SDS011;10355;53.688;10.078;2023-05-07T05:29:00;5.50;;;3.40;;
20391;SDS011;10355;53.688;10.078;2023-05-07T05:31:44;6.47;;;3.42;;
20391;SDS011;10355;53.688;10.078;2023-05-07T05:34:27;5.13;;;3.40;;
20391;SDS011;10355;53.688;10.078;2023-05-07T05:37:10;6.68;;;3.38;;
20391;SDS011;10355;53.688;10.078;2023-05-07T05:39:53;6.38;;;3.75;;
20391;SDS011;10355;53.688;10.078;2023-05-07T05:42:38;5.55;;;3.40;;
20391;SDS011;10355;53.688;10.078;2023-05-07T05:45:23;5.30;;;3.38;;
20391;SDS011;10355;53.688;10.078;2023-05-07T05:48:06;6.88;;;4.10;;
20391;SDS011;10355;53.688;10.078;2023-05-07T05:50:50;6.68;;;3.70;;
20391;SDS011;10355;53.688;10.078;2023-05-07T05:53:33;5.90;;;3.65;;
20391;SDS011;10355;53.688;10.078;2023-05-07T05:56:16;5.18;;;3.28;;
20391;SDS011;10355;53.688;10.078;2023-05-07T05:58:59;5.57;;;3.40;;
20391;SDS011;10355;53.688;10.078;2023-05-07T06:01:47;6.88;;;4.00;;
20391;SDS011;10355;53.688;10.078;2023-05-07T06:04:29;6.18;;;3.78;;
20391;SDS011;10355;53.688;10.078;2023-05-07T06:07:12;4.80;;;3.50;;
20391;SDS011;10355;53.688;10.078;2023-05-07T06:09:55;5.80;;;3.63;;
20391;SDS011;10355;53.688;10.078;2023-05-07T06:12:38;7.25;;;3.53;;
20391;SDS011;10355;53.688;10.078;2023-05-07T06:15:21;6.38;;;3.60;;
20391;SDS011;10355;53.688;10.078;2023-05-07T06:18:06;5.35;;;3.63;;
20391;SDS011;10355;53.688;10.078;2023-05-07T06:20:49;4.75;;;3.22;;
20391;SDS011;10355;53.688;10.078;2023-05-07T06:23:38;5.63;;;3.50;;
20391;SDS011;10355;53.688;10.078;2023-05-07T06:26:22;5.43;;;3.30;;
20391;SDS011;10355;53.688;10.078;2023-05-07T06:29:06;5.88;;;3.50;;
20391;SDS011;10355;53.688;10.078;2023-05-07T06:31:49;5.43;;;3.38;;
20391;SDS011;10355;53.688;10.078;2023-05-07T06:34:34;4.50;;;3.08;;
20391;SDS011;10355;53.688;10.078;2023-05-07T06:37:16;4.45;;;3.30;;
20391;SDS011;10355;53.688;10.078;2023-05-07T06:40:06;5.25;;;3.30;;
20391;SDS011;10355;53.688;10.078;2023-05-07T06:42:52;6.07;;;3.45;;
20391;SDS011;10355;53.688;10.078;2023-05-07T06:45:49;5.43;;;3.47;;
20391;SDS011;10355;53.688;10.078;2023-05-07T06:48:32;3.92;;;2.80;;
20391;SDS011;10355;53.688;10.078;2023-05-07T06:51:20;5.15;;;3.50;;
20391;SDS011;10355;53.688;10.078;2023-05-07T06:54:03;6.60;;;3.50;;
20391;SDS011;10355;53.688;10.078;2023-05-07T06:56:47;4.63;;;3.38;;
20391;SDS011;10355;53.688;10.078;2023-05-07T06:59:31;5.88;;;2.97;;
20391;SDS011;10355;53.688;10.078;2023-05-07T07:02:13;4.53;;;3.20;;
20391;SDS011;10355;53.688;10.078;2023-05-07T07:04:59;4.13;;;3.00;;
20391;SDS011;10355;53.688;10.078;2023-05-07T07:07:43;4.95;;;3.10;;
20391;SDS011;10355;53.688;10.078;2023-05-07T07:10:25;4.75;;;3.22;;
20391;SDS011;10355;53.688;10.078;2023-05-07T07:13:09;3.78;;;2.80;;
20391;SDS011;10355;53.688;10.078;2023-05-07T07:15:53;4.40;;;3.17;;
20391;SDS011;10355;53.688;10.078;2023-05-07T07:18:35;3.20;;;2.78;;
20391;SDS011;10355;53.688;10.078;2023-05-07T07:21:18;4.82;;;3.03;;
20391;SDS011;10355;53.688;10.078;2023-05-07T07:24:03;4.38;;;2.78;;
20391;SDS011;10355;53.688;10.078;2023-05-07T07:26:46;4.45;;;3.10;;
20391;SDS011;10355;53.688;10.078;2023-05-07T07:29:28;4.00;;;3.10;;
20391;SDS011;10355;53.688;10.078;2023-05-07T07:32:11;6.13;;;2.95;;
20391;SDS011;10355;53.688;10.078;2023-05-07T07:34:54;4.78;;;3.03;;
20391;SDS011;10355;53.688;10.078;2023-05-07T07:37:37;4.55;;;3.28;;
20391;SDS011;10355;53.688;10.078;2023-05-07T07:40:22;4.32;;;2.67;;
20391;SDS011;10355;53.688;10.078;2023-05-07T07:43:04;4.75;;;2.90;;
20391;SDS011;10355;53.688;10.078;2023-05-07T07:45:48;4.78;;;3.17;;
20391;SDS011;10355;53.688;10.078;2023-05-07T07:48:31;5.15;;;3.00;;
20391;SDS011;10355;53.688;10.078;2023-05-07T07:51:13;8.60;;;2.90;;
20391;SDS011;10355;53.688;10.078;2023-05-07T07:53:57;4.95;;;2.88;;
20391;SDS011;10355;53.688;10.078;2023-05-07T07:56:41;4.13;;;2.72;;
20391;SDS011;10355;53.688;10.078;2023-05-07T07:59:25;5.15;;;2.72;;
20391;SDS011;10355;53.688;10.078;2023-05-07T08:02:08;4.57;;;2.70;;
20391;SDS011;10355;53.688;10.078;2023-05-07T08:04:51;5.63;;;2.45;;
20391;SDS011;10355;53.688;10.078;2023-05-07T08:07:34;3.97;;;2.45;;
20391;SDS011;10355;53.688;10.078;2023-05-07T08:10:17;3.45;;;2.40;;
20391;SDS011;10355;53.688;10.078;2023-05-07T08:13:07;3.53;;;2.45;;
20391;SDS011;10355;53.688;10.078;2023-05-07T08:15:52;3.17;;;2.38;;
20391;SDS011;10355;53.688;10.078;2023-05-07T08:18:36;3.40;;;2.45;;
20391;SDS011;10355;53.688;10.078;2023-05-07T08:21:18;4.80;;;2.45;;
20391;SDS011;10355;53.688;10.078;2023-05-07T08:24:01;4.05;;;2.47;;
20391;SDS011;10355;53.688;10.078;2023-05-07T08:26:44;5.07;;;2.40;;
20391;SDS011;10355;53.688;10.078;2023-05-07T08:29:29;3.45;;;2.42;;
20391;SDS011;10355;53.688;10.078;2023-05-07T08:32:14;4.53;;;2.38;;
20391;SDS011;10355;53.688;10.078;2023-05-07T08:34:56;6.47;;;2.75;;
20391;SDS011;10355;53.688;10.078;2023-05-07T08:37:39;3.03;;;2.30;;
20391;SDS011;10355;53.688;10.078;2023-05-07T08:40:24;3.90;;;2.35;;
20391;SDS011;10355;53.688;10.078;2023-05-07T08:43:10;3.25;;;2.20;;
20391;SDS011;10355;53.688;10.078;2023-05-07T08:45:56;4.47;;;2.20;;
20391;SDS011;10355;53.688;10.078;2023-05-07T08:48:42;4.28;;;2.40;;
20391;SDS011;10355;53.688;10.078;2023-05-07T08:51:28;2.65;;;2.05;;
20391;SDS011;10355;53.688;10.078;2023-05-07T08:54:11;3.50;;;2.53;;
20391;SDS011;10355;53.688;10.078;2023-05-07T08:56:58;3.83;;;2.53;;
20391;SDS011;10355;53.688;10.078;2023-05-07T08:59:41;3.75;;;2.58;;
20391;SDS011;10355;53.688;10.078;2023-05-07T09:02:26;3.70;;;2.47;;
20391;SDS011;10355;53.688;10.078;2023-05-07T09:05:09;3.55;;;2.30;;
20391;SDS011;10355;53.688;10.078;2023-05-07T09:07:53;3.50;;;2.22;;
20391;SDS011;10355;53.688;10.078;2023-05-07T09:10:39;3.15;;;2.75;;
20391;SDS011;10355;53.688;10.078;2023-05-07T09:13:22;3.42;;;2.40;;
20391;SDS011;10355;53.688;10.078;2023-05-07T09:16:11;5.00;;;2.55;;
20391;SDS011;10355;53.688;10.078;2023-05-07T09:18:59;3.03;;;2.17;;
20391;SDS011;10355;53.688;10.078;2023-05-07T09:21:42;4.40;;;2.33;;
20391;SDS011;10355;53.688;10.078;2023-05-07T09:24:26;3.97;;;2.55;;
20391;SDS011;10355;53.688;10.078;2023-05-07T09:27:14;3.40;;;2.42;;
20391;SDS011;10355;53.688;10.078;2023-05-07T09:29:58;3.97;;;2.33;;
20391;SDS011;10355;53.688;10.078;2023-05-07T09:32:41;3.10;;;2.20;;
20391;SDS011;10355;53.688;10.078;2023-05-07T09:35:31;4.35;;;2.50;;
20391;SDS011;10355;53.688;10.078;2023-05-07T09:38:19;4.22;;;2.47;;
20391;SDS011;10355;53.688;10.078;2023-05-07T09:41:07;4.63;;;2.53;;
20391;SDS011;10355;53.688;10.078;2023-05-07T09:44:04;3.33;;;2.30;;
20391;SDS011;10355;53.688;10.078;2023-05-07T09:46:53;3.88;;;2.50;;
20391;SDS011;10355;53.688;10.078;2023-05-07T09:49:46;4.18;;;2.60;;
20391;SDS011;10355;53.688;10.078;2023-05-07T09:52:34;3.72;;;2.65;;
20391;SDS011;10355;53.688;10.078;2023-05-07T09:55:20;4.00;;;2.03;;
20391;SDS011;10355;53.688;10.078;2023-05-07T09:58:02;2.88;;;2.35;;
20391;SDS011;10355;53.688;10.078;2023-05-07T10:00:46;3.25;;;2.08;;
20391;SDS011;10355;53.688;10.078;2023-05-07T10:03:30;4.22;;;2.42;;
20391;SDS011;10355;53.688;10.078;2023-05-07T10:06:18;3.53;;;2.38;;
20391;SDS011;10355;53.688;10.078;2023-05-07T10:09:03;3.70;;;2.40;;
20391;SDS011;10355;53.688;10.078;2023-05-07T10:11:48;3.65;;;2.63;;
20391;SDS011;10355;53.688;10.078;2023-05-07T10:14:31;4.65;;;2.40;;
20391;SDS011;10355;53.688;10.078;2023-05-07T10:17:15;3.97;;;2.40;;
20391;SDS011;10355;53.688;10.078;2023-05-07T10:19:59;3.85;;;2.40;;
20391;SDS011;10355;53.688;10.078;2023-05-07T10:22:46;4.63;;;2.58;;
20391;SDS011;10355;53.688;10.078;2023-05-07T10:25:34;4.53;;;2.55;;
20391;SDS011;10355;53.688;10.078;2023-05-07T10:28:23;3.88;;;2.50;;
20391;SDS011;10355;53.688;10.078;2023-05-07T10:31:12;3.70;;;2.35;;
20391;SDS011;10355;53.688;10.078;2023-05-07T10:34:00;4.03;;;2.47;;
20391;SDS011;10355;53.688;10.078;2023-05-07T10:36:43;3.40;;;2.22;;
20391;SDS011;10355;53.688;10.078;2023-05-07T10:39:27;4.60;;;2.40;;
20391;SDS011;10355;53.688;10.078;2023-05-07T10:42:12;3.58;;;2.60;;
20391;SDS011;10355;53.688;10.078;2023-05-07T10:45:11;2.65;;;2.17;;
20391;SDS011;10355;53.688;10.078;2023-05-07T10:48:11;2.72;;;2.10;;
20391;SDS011;10355;53.688;10.078;2023-05-07T10:51:18;2.75;;;1.98;;
20391;SDS011;10355;53.688;10.078;2023-05-07T11:03:23;4.00;;;2.10;;
20391;SDS011;10355;53.688;10.078;2023-05-07T11:06:16;2.25;;;1.85;;
20391;SDS011;10355;53.688;10.078;2023-05-07T11:09:09;3.60;;;2.10;;
20391;SDS011;10355;53.688;10.078;2023-05-07T11:12:05;2.80;;;1.95;;
20391;SDS011;10355;53.688;10.078;2023-05-07T11:15:02;3.10;;;2.10;;
20391;SDS011;10355;53.688;10.078;2023-05-07T11:17:54;2.65;;;1.92;;
20391;SDS011;10355;53.688;10.078;2023-05-07T11:20:49;2.22;;;1.80;;
20391;SDS011;10355;53.688;10.078;2023-05-07T11:23:55;4.35;;;1.83;;
20391;SDS011;10355;53.688;10.078;2023-05-07T11:26:45;2.17;;;1.80;;
20391;SDS011;10355;53.688;10.078;2023-05-07T11:29:28;4.07;;;2.15;;
20391;SDS011;10355;53.688;10.078;2023-05-07T11:32:22;2.97;;;1.90;;
20391;SDS011;10355;53.688;10.078;2023-05-07T11:35:07;3.13;;;1.90;;
20391;SDS011;10355;53.688;10.078;2023-05-07T11:37:57;1.67;;;1.58;;
20391;SDS011;10355;53.688;10.078;2023-05-07T11:40:48;4.35;;;1.83;;
20391;SDS011;10355;53.688;10.078;2023-05-07T11:43:31;2.20;;;2.00;;
20391;SDS011;10355;53.688;10.078;2023-05-07T11:46:13;3.00;;;1.80;;
20391;SDS011;10355;53.688;10.078;2023-05-07T11:48:56;2.40;;;1.92;;
20391;SDS011;10355;53.688;10.078;2023-05-07T11:51:39;3.70;;;1.80;;
20391;SDS011;10355;53.688;10.078;2023-05-07T11:54:27;1.80;;;1.70;;
20391;SDS011;10355;53.688;10.078;2023-05-07T11:57:17;2.47;;;1.70;;
20391;SDS011;10355;53.688;10.078;2023-05-07T12:00:00;1.83;;;1.67;;
20391;SDS011;10355;53.688;10.078;2023-05-07T12:02:52;3.90;;;1.60;;
20391;SDS011;10355;53.688;10.078;2023-05-07T12:05:35;2.42;;;1.55;;
20391;SDS011;10355;53.688;10.078;2023-05-07T12:08:21;3.38;;;1.50;;
20391;SDS011;10355;53.688;10.078;2023-05-07T12:11:05;1.63;;;1.40;;
20391;SDS011;10355;53.688;10.078;2023-05-07T12:13:49;1.60;;;1.50;;
20391;SDS011;10355;53.688;10.078;2023-05-07T12:16:31;3.15;;;1.77;;
20391;SDS011;10355;53.688;10.078;2023-05-07T12:19:14;4.05;;;1.92;;
20391;SDS011;10355;53.688;10.078;2023-05-07T12:21:57;4.20;;;1.70;;
20391;SDS011;10355;53.688;10.078;2023-05-07T12:24:43;1.60;;;1.25;;
20391;SDS011;10355;53.688;10.078;2023-05-07T12:27:28;4.38;;;1.58;;
20391;SDS011;10355;53.688;10.078;2023-05-07T12:30:12;2.03;;;1.60;;
20391;SDS011;10355;53.688;10.078;2023-05-07T12:32:54;1.60;;;1.48;;
20391;SDS011;10355;53.688;10.078;2023-05-07T12:35:38;1.55;;;1.38;;
20391;SDS011;10355;53.688;10.078;2023-05-07T12:38:22;1.70;;;1.40;;
20391;SDS011;10355;53.688;10.078;2023-05-07T12:41:05;1.88;;;1.50;;
20391;SDS011;10355;53.688;10.078;2023-05-07T12:43:52;1.77;;;1.30;;
20391;SDS011;10355;53.688;10.078;2023-05-07T12:46:38;1.35;;;1.17;;
20391;SDS011;10355;53.688;10.078;2023-05-07T12:49:22;1.30;;;1.20;;
20391;SDS011;10355;53.688;10.078;2023-05-07T12:52:06;3.22;;;1.45;;
20391;SDS011;10355;53.688;10.078;2023-05-07T12:54:48;1.80;;;1.50;;
20391;SDS011;10355;53.688;10.078;2023-05-07T12:57:33;1.50;;;1.38;;
20391;SDS011;10355;53.688;10.078;2023-05-07T13:00:33;3.22;;;1.30;;
20391;SDS011;10355;53.688;10.078;2023-05-07T13:03:22;1.55;;;1.13;;
20391;SDS011;10355;53.688;10.078;2023-05-07T13:06:06;1.60;;;1.27;;
20391;SDS011;10355;53.688;10.078;2023-05-07T13:08:51;2.05;;;1.40;;
20391;SDS011;10355;53.688;10.078;2023-05-07T13:11:33;1.23;;;1.10;;
20391;SDS011;10355;53.688;10.078;2023-05-07T13:14:16;3.10;;;1.52;;
20391;SDS011;10355;53.688;10.078;2023-05-07T13:17:00;2.75;;;1.50;;
20391;SDS011;10355;53.688;10.078;2023-05-07T13:19:43;1.23;;;1.10;;
20391;SDS011;10355;53.688;10.078;2023-05-07T13:22:25;1.33;;;1.15;;
20391;SDS011;10355;53.688;10.078;2023-05-07T13:25:08;1.15;;;1.05;;
20391;SDS011;10355;53.688;10.078;2023-05-07T13:27:51;2.22;;;1.23;;
20391;SDS011;10355;53.688;10.078;2023-05-07T13:30:47;2.58;;;1.30;;
20391;SDS011;10355;53.688;10.078;2023-05-07T13:33:31;2.67;;;1.27;;
20391;SDS011;10355;53.688;10.078;2023-05-07T13:36:14;1.60;;;1.27;;
20391;SDS011;10355;53.688;10.078;2023-05-07T13:38:57;1.52;;;1.10;;
20391;SDS011;10355;53.688;10.078;2023-05-07T13:41:41;1.50;;;1.23;;
20391;SDS011;10355;53.688;10.078;2023-05-07T13:44:24;3.42;;;1.40;;
20391;SDS011;10355;53.688;10.078;2023-05-07T13:47:06;2.78;;;1.35;;
20391;SDS011;10355;53.688;10.078;2023-05-07T13:49:58;1.45;;;1.30;;
20391;SDS011;10355;53.688;10.078;2023-05-07T13:52:41;1.40;;;1.08;;
20391;SDS011;10355;53.688;10.078;2023-05-07T13:55:28;1.23;;;1.13;;
20391;SDS011;10355;53.688;10.078;2023-05-07T13:58:11;1.50;;;1.20;;
20391;SDS011;10355;53.688;10.078;2023-05-07T14:00:53;2.22;;;1.10;;
20391;SDS011;10355;53.688;10.078;2023-05-07T14:03:36;2.00;;;1.30;;
20391;SDS011;10355;53.688;10.078;2023-05-07T14:06:22;2.85;;;1.40;;
20391;SDS011;10355;53.688;10.078;2023-05-07T14:09:05;2.65;;;1.20;;
20391;SDS011;10355;53.688;10.078;2023-05-07T14:11:48;2.13;;;1.25;;
20391;SDS011;10355;53.688;10.078;2023-05-07T14:14:32;1.83;;;1.30;;
20391;SDS011;10355;53.688;10.078;2023-05-07T14:17:15;4.15;;;1.48;;
20391;SDS011;10355;53.688;10.078;2023-05-07T14:19:58;1.30;;;1.15;;
20391;SDS011;10355;53.688;10.078;2023-05-07T14:22:42;1.80;;;1.13;;
20391;SDS011;10355;53.688;10.078;2023-05-07T14:25:24;2.42;;;1.50;;
20391;SDS011;10355;53.688;10.078;2023-05-07T14:28:07;1.55;;;1.30;;
20391;SDS011;10355;53.688;10.078;2023-05-07T14:30:50;1.65;;;1.30;;
20391;SDS011;10355;53.688;10.078;2023-05-07T14:33:33;3.25;;;1.00;;
20391;SDS011;10355;53.688;10.078;2023-05-07T14:36:15;3.13;;;1.55;;
20391;SDS011;10355;53.688;10.078;2023-05-07T14:38:59;2.55;;;1.30;;
20391;SDS011;10355;53.688;10.078;2023-05-07T14:41:42;1.95;;;1.30;;
20391;SDS011;10355;53.688;10.078;2023-05-07T14:44:25;1.95;;;1.40;;
20391;SDS011;10355;53.688;10.078;2023-05-07T14:47:08;1.30;;;1.10;;
20391;SDS011;10355;53.688;10.078;2023-05-07T14:49:51;2.53;;;1.45;;
20391;SDS011;10355;53.688;10.078;2023-05-07T14:52:34;2.58;;;1.30;;
20391;SDS011;10355;53.688;10.078;2023-05-07T14:55:18;2.13;;;1.20;;
20391;SDS011;10355;53.688;10.078;2023-05-07T14:58:01;1.50;;;1.20;;
20391;SDS011;10355;53.688;10.078;2023-05-07T15:00:43;2.17;;;1.35;;
20391;SDS011;10355;53.688;10.078;2023-05-07T15:03:26;1.48;;;1.35;;
20391;SDS011;10355;53.688;10.078;2023-05-07T15:06:09;1.92;;;1.30;;
20391;SDS011;10355;53.688;10.078;2023-05-07T15:08:52;1.42;;;1.20;;
20391;SDS011;10355;53.688;10.078;2023-05-07T15:11:36;1.85;;;1.52;;
20391;SDS011;10355;53.688;10.078;2023-05-07T15:14:20;1.80;;;1.30;;
20391;SDS011;10355;53.688;10.078;2023-05-07T15:17:03;2.55;;;1.50;;
20391;SDS011;10355;53.688;10.078;2023-05-07T15:19:46;1.55;;;1.17;;
20391;SDS011;10355;53.688;10.078;2023-05-07T15:22:28;2.13;;;1.40;;
20391;SDS011;10355;53.688;10.078;2023-05-07T15:25:12;1.42;;;1.30;;
20391;SDS011;10355;53.688;10.078;2023-05-07T15:27:56;2.22;;;1.40;;
20391;SDS011;10355;53.688;10.078;2023-05-07T15:30:39;3.10;;;1.20;;
20391;SDS011;10355;53.688;10.078;2023-05-07T15:33:21;1.20;;;1.10;;
20391;SDS011;10355;53.688;10.078;2023-05-07T15:36:04;3.08;;;1.30;;
20391;SDS011;10355;53.688;10.078;2023-05-07T15:38:47;1.38;;;1.10;;
20391;SDS011;10355;53.688;10.078;2023-05-07T15:41:30;1.33;;;1.17;;
20391;SDS011;10355;53.688;10.078;2023-05-07T15:44:14;1.50;;;1.20;;
20391;SDS011;10355;53.688;10.078;2023-05-07T15:46:57;1.38;;;1.20;;
20391;SDS011;10355;53.688;10.078;2023-05-07T15:49:40;2.58;;;1.50;;
20391;SDS011;10355;53.688;10.078;2023-05-07T15:52:23;3.38;;;1.40;;
20391;SDS011;10355;53.688;10.078;2023-05-07T15:55:06;1.95;;;1.20;;
20391;SDS011;10355;53.688;10.078;2023-05-07T15:57:50;1.85;;;1.33;;
20391;SDS011;10355;53.688;10.078;2023-05-07T16:00:34;2.00;;;1.45;;
20391;SDS011;10355;53.688;10.078;2023-05-07T16:03:17;4.93;;;1.45;;
20391;SDS011;10355;53.688;10.078;2023-05-07T16:06:02;2.15;;;1.50;;
20391;SDS011;10355;53.688;10.078;2023-05-07T16:08:46;1.92;;;1.30;;
20391;SDS011;10355;53.688;10.078;2023-05-07T16:11:29;2.75;;;1.35;;
20391;SDS011;10355;53.688;10.078;2023-05-07T16:14:12;2.03;;;1.52;;
20391;SDS011;10355;53.688;10.078;2023-05-07T16:16:56;2.45;;;1.33;;
20391;SDS011;10355;53.688;10.078;2023-05-07T16:19:39;1.55;;;1.45;;
20391;SDS011;10355;53.688;10.078;2023-05-07T16:22:22;2.38;;;1.30;;
20391;SDS011;10355;53.688;10.078;2023-05-07T16:25:06;1.50;;;1.20;;